sensor_id;sensor_type;location;lat;lon;timestamp;P1;durP1;ratioP1;P2;durP2;ratioP2
79644;SDS011;69117;47.148;18.954;2024-01-15T00:01:21;11.13;;;4.97;;
79644;SDS011;69117;47.148;18.954;2024-01-15T00:04:23;14.23;;;5.95;;
79644;SDS011;69117;47.148;18.954;2024-01-15T00:07:24;12.02;;;6.38;;
79644;SDS011;69117;47.148;18.954;2024-01-15T00:10:26;10.13;;;6.32;;
79644;SDS011;69117;47.148;18.954;2024-01-15T00:13:28;9.95;;;5.50;;
79644;SDS011;69117;47.148;18.954;2024-01-15T00:16:29;8.30;;;4.88;;
79644;SDS011;69117;47.148;18.954;2024-01-15T00:19:31;6.68;;;4.82;;
79644;SDS011;69117;47.148;18.954;2024-01-15T00:22:33;15.48;;;3.97;;
79644;SDS011;69117;47.148;18.954;2024-01-15T00:25:37;11.02;;;5.93;;
79644;SDS011;69117;47.148;18.954;2024-01-15T00:28:38;9.07;;;5.40;;
79644;SDS011;69117;47.148;18.954;2024-01-15T00:34:42;11.10;;;4.57;;
79644;SDS011;69117;47.148;18.954;2024-01-15T00:37:44;5.93;;;5.40;;
79644;SDS011;69117;47.148;18.954;2024-01-15T00:40:46;7.40;;;5.72;;
79644;SDS011;69117;47.148;18.954;2024-01-15T00:43:47;7.88;;;6.60;;
79644;SDS011;69117;47.148;18.954;2024-01-15T00:46:52;6.65;;;5.00;;
79644;SDS011;69117;47.148;18.954;2024-01-15T00:49:54;13.93;;;7.07;;
79644;SDS011;69117;47.148;18.954;2024-01-15T00:52:55;11.63;;;4.80;;
79644;SDS011;69117;47.148;18.954;2024-01-15T00:55:57;10.35;;;5.90;;
79644;SDS011;69117;47.148;18.954;2024-01-15T01:02:01;5.88;;;3.63;;
79644;SDS011;69117;47.148;18.954;2024-01-15T01:05:04;10.85;;;6.45;;
79644;SDS011;69117;47.148;18.954;2024-01-15T01:08:05;7.55;;;5.05;;
79644;SDS011;69117;47.148;18.954;2024-01-15T01:11:07;14.20;;;6.15;;
79644;SDS011;69117;47.148;18.954;2024-01-15T01:14:09;8.98;;;4.90;;
79644;SDS011;69117;47.148;18.954;2024-01-15T01:17:12;4.40;;;3.97;;
79644;SDS011;69117;47.148;18.954;2024-01-15T01:20:13;9.73;;;4.90;;
79644;SDS011;69117;47.148;18.954;2024-01-15T01:23:19;13.80;;;5.38;;
79644;SDS011;69117;47.148;18.954;2024-01-15T01:26:21;3.95;;;3.20;;
79644;SDS011;69117;47.148;18.954;2024-01-15T01:29:22;6.95;;;4.28;;
79644;SDS011;69117;47.148;18.954;2024-01-15T01:32:24;8.98;;;4.97;;
79644;SDS011;69117;47.148;18.954;2024-01-15T01:35:26;10.80;;;4.53;;
79644;SDS011;69117;47.148;18.954;2024-01-15T01:38:27;4.53;;;4.05;;
79644;SDS011;69117;47.148;18.954;2024-01-15T01:41:29;5.80;;;4.30;;
79644;SDS011;69117;47.148;18.954;2024-01-15T01:44:31;12.40;;;5.75;;
79644;SDS011;69117;47.148;18.954;2024-01-15T01:47:33;8.10;;;5.20;;
79644;SDS011;69117;47.148;18.954;2024-01-15T01:50:35;10.20;;;5.80;;
79644;SDS011;69117;47.148;18.954;2024-01-15T01:53:38;4.95;;;3.25;;
79644;SDS011;69117;47.148;18.954;2024-01-15T01:56:40;11.38;;;6.88;;
79644;SDS011;69117;47.148;18.954;2024-01-15T01:59:42;8.20;;;5.18;;
79644;SDS011;69117;47.148;18.954;2024-01-15T02:05:47;3.90;;;2.63;;
79644;SDS011;69117;47.148;18.954;2024-01-15T02:08:50;10.57;;;5.15;;
79644;SDS011;69117;47.148;18.954;2024-01-15T02:11:53;6.43;;;3.75;;
79644;SDS011;69117;47.148;18.954;2024-01-15T02:14:54;5.60;;;3.60;;
79644;SDS011;69117;47.148;18.954;2024-01-15T02:17:57;18.20;;;5.30;;
79644;SDS011;69117;47.148;18.954;2024-01-15T02:20:59;5.78;;;4.25;;
79644;SDS011;69117;47.148;18.954;2024-01-15T02:24:01;9.30;;;4.38;;
79644;SDS011;69117;47.148;18.954;2024-01-15T02:30:05;7.95;;;2.85;;
79644;SDS011;69117;47.148;18.954;2024-01-15T02:33:08;6.30;;;3.25;;
79644;SDS011;69117;47.148;18.954;2024-01-15T02:36:11;13.30;;;4.68;;
79644;SDS011;69117;47.148;18.954;2024-01-15T02:39:13;6.55;;;4.32;;
79644;SDS011;69117;47.148;18.954;2024-01-15T02:42:15;11.68;;;4.93;;
79644;SDS011;69117;47.148;18.954;2024-01-15T02:45:16;8.02;;;4.18;;
79644;SDS011;69117;47.148;18.954;2024-01-15T02:51:20;17.67;;;2.70;;
79644;SDS011;69117;47.148;18.954;2024-01-15T02:54:22;9.98;;;5.70;;
79644;SDS011;69117;47.148;18.954;2024-01-15T02:57:23;8.38;;;4.20;;
79644;SDS011;69117;47.148;18.954;2024-01-15T03:00:25;10.98;;;3.55;;
79644;SDS011;69117;47.148;18.954;2024-01-15T03:03:27;12.80;;;6.13;;
79644;SDS011;69117;47.148;18.954;2024-01-15T03:06:29;17.08;;;5.30;;
79644;SDS011;69117;47.148;18.954;2024-01-15T03:09:30;6.43;;;5.45;;
79644;SDS011;69117;47.148;18.954;2024-01-15T03:12:32;4.97;;;4.45;;
79644;SDS011;69117;47.148;18.954;2024-01-15T03:15:34;15.38;;;4.20;;
79644;SDS011;69117;47.148;18.954;2024-01-15T03:18:36;5.40;;;3.92;;
79644;SDS011;69117;47.148;18.954;2024-01-15T03:21:37;7.88;;;4.25;;
79644;SDS011;69117;47.148;18.954;2024-01-15T03:24:39;10.18;;;4.53;;
79644;SDS011;69117;47.148;18.954;2024-01-15T03:27:41;6.53;;;4.07;;
79644;SDS011;69117;47.148;18.954;2024-01-15T03:30:42;4.97;;;4.07;;
79644;SDS011;69117;47.148;18.954;2024-01-15T03:33:44;8.73;;;4.38;;
79644;SDS011;69117;47.148;18.954;2024-01-15T03:39:48;4.00;;;2.08;;
79644;SDS011;69117;47.148;18.954;2024-01-15T03:45:51;7.53;;;3.60;;
79644;SDS011;69117;47.148;18.954;2024-01-15T03:51:55;1.60;;;1.50;;
79644;SDS011;69117;47.148;18.954;2024-01-15T03:54:57;34.17;;;3.67;;
79644;SDS011;69117;47.148;18.954;2024-01-15T03:57:59;7.28;;;3.60;;
79644;SDS011;69117;47.148;18.954;2024-01-15T04:01:01;5.55;;;4.50;;
79644;SDS011;69117;47.148;18.954;2024-01-15T04:04:03;7.15;;;4.00;;
79644;SDS011;69117;47.148;18.954;2024-01-15T04:07:05;7.78;;;5.72;;
79644;SDS011;69117;47.148;18.954;2024-01-15T04:10:07;13.95;;;5.43;;
79644;SDS011;69117;47.148;18.954;2024-01-15T04:13:09;14.32;;;3.58;;
79644;SDS011;69117;47.148;18.954;2024-01-15T04:16:10;18.08;;;4.07;;
79644;SDS011;69117;47.148;18.954;2024-01-15T04:19:12;8.68;;;4.25;;
79644;SDS011;69117;47.148;18.954;2024-01-15T04:25:15;3.45;;;3.15;;
79644;SDS011;69117;47.148;18.954;2024-01-15T04:28:17;7.20;;;3.92;;
79644;SDS011;69117;47.148;18.954;2024-01-15T04:31:25;10.43;;;4.32;;
79644;SDS011;69117;47.148;18.954;2024-01-15T04:34:29;5.93;;;2.70;;
79644;SDS011;69117;47.148;18.954;2024-01-15T04:37:30;7.20;;;5.47;;
79644;SDS011;69117;47.148;18.954;2024-01-15T04:40:32;6.55;;;4.38;;
79644;SDS011;69117;47.148;18.954;2024-01-15T04:43:34;8.75;;;5.70;;
79644;SDS011;69117;47.148;18.954;2024-01-15T04:46:35;10.75;;;6.28;;
79644;SDS011;69117;47.148;18.954;2024-01-15T04:49:37;11.30;;;4.20;;
79644;SDS011;69117;47.148;18.954;2024-01-15T04:52:39;17.42;;;7.53;;
79644;SDS011;69117;47.148;18.954;2024-01-15T04:55:40;7.15;;;6.43;;
79644;SDS011;69117;47.148;18.954;2024-01-15T04:58:42;5.70;;;5.18;;
79644;SDS011;69117;47.148;18.954;2024-01-15T05:01:44;6.38;;;5.80;;
79644;SDS011;69117;47.148;18.954;2024-01-15T05:04:45;7.53;;;4.60;;
79644;SDS011;69117;47.148;18.954;2024-01-15T05:07:47;9.73;;;5.10;;
79644;SDS011;69117;47.148;18.954;2024-01-15T05:10:49;7.45;;;4.70;;
79644;SDS011;69117;47.148;18.954;2024-01-15T05:13:51;10.88;;;7.18;;
79644;SDS011;69117;47.148;18.954;2024-01-15T05:16:52;11.63;;;6.80;;
79644;SDS011;69117;47.148;18.954;2024-01-15T05:19:54;26.48;;;8.30;;
79644;SDS011;69117;47.148;18.954;2024-01-15T05:22:56;8.40;;;6.53;;
79644;SDS011;69117;47.148;18.954;2024-01-15T05:25:58;12.77;;;7.97;;
79644;SDS011;69117;47.148;18.954;2024-01-15T05:28:59;20.98;;;7.00;;
79644;SDS011;69117;47.148;18.954;2024-01-15T05:32:01;12.88;;;6.25;;
79644;SDS011;69117;47.148;18.954;2024-01-15T05:35:03;7.15;;;4.43;;
79644;SDS011;69117;47.148;18.954;2024-01-15T05:38:05;6.10;;;4.63;;
79644;SDS011;69117;47.148;18.954;2024-01-15T05:41:07;11.57;;;7.38;;
79644;SDS011;69117;47.148;18.954;2024-01-15T05:44:08;11.75;;;7.05;;
79644;SDS011;69117;47.148;18.954;2024-01-15T05:47:11;5.80;;;4.85;;
79644;SDS011;69117;47.148;18.954;2024-01-15T05:50:13;7.70;;;5.93;;
79644;SDS011;69117;47.148;18.954;2024-01-15T05:53:14;11.90;;;6.78;;
79644;SDS011;69117;47.148;18.954;2024-01-15T05:56:16;18.42;;;5.07;;
79644;SDS011;69117;47.148;18.954;2024-01-15T05:59:17;12.00;;;6.70;;
79644;SDS011;69117;47.148;18.954;2024-01-15T06:02:19;5.05;;;4.53;;
79644;SDS011;69117;47.148;18.954;2024-01-15T06:05:21;11.57;;;8.38;;
79644;SDS011;69117;47.148;18.954;2024-01-15T06:11:29;13.30;;;6.78;;
79644;SDS011;69117;47.148;18.954;2024-01-15T06:14:31;8.35;;;5.32;;
79644;SDS011;69117;47.148;18.954;2024-01-15T06:17:33;14.93;;;6.00;;
79644;SDS011;69117;47.148;18.954;2024-01-15T06:20:35;7.75;;;4.40;;
79644;SDS011;69117;47.148;18.954;2024-01-15T06:23:37;6.25;;;5.07;;
79644;SDS011;69117;47.148;18.954;2024-01-15T06:26:39;4.35;;;3.60;;
79644;SDS011;69117;47.148;18.954;2024-01-15T06:32:50;9.55;;;6.35;;
79644;SDS011;69117;47.148;18.954;2024-01-15T06:38:54;3.45;;;3.15;;
79644;SDS011;69117;47.148;18.954;2024-01-15T06:41:55;6.55;;;4.15;;
79644;SDS011;69117;47.148;18.954;2024-01-15T06:44:57;8.13;;;4.88;;
79644;SDS011;69117;47.148;18.954;2024-01-15T06:47:59;5.47;;;4.95;;
79644;SDS011;69117;47.148;18.954;2024-01-15T06:51:00;6.43;;;5.05;;
79644;SDS011;69117;47.148;18.954;2024-01-15T06:54:02;19.30;;;7.03;;
79644;SDS011;69117;47.148;18.954;2024-01-15T07:00:08;12.38;;;6.97;;
79644;SDS011;69117;47.148;18.954;2024-01-15T07:03:10;8.43;;;6.32;;
79644;SDS011;69117;47.148;18.954;2024-01-15T07:09:14;5.18;;;3.55;;
79644;SDS011;69117;47.148;18.954;2024-01-15T07:12:16;9.75;;;5.00;;
79644;SDS011;69117;47.148;18.954;2024-01-15T07:18:19;11.73;;;6.65;;
79644;SDS011;69117;47.148;18.954;2024-01-15T07:21:21;10.40;;;8.30;;
79644;SDS011;69117;47.148;18.954;2024-01-15T07:24:23;13.00;;;8.93;;
79644;SDS011;69117;47.148;18.954;2024-01-15T07:27:25;16.55;;;9.80;;
79644;SDS011;69117;47.148;18.954;2024-01-15T07:30:27;10.13;;;8.25;;
79644;SDS011;69117;47.148;18.954;2024-01-15T07:36:31;9.57;;;5.60;;
79644;SDS011;69117;47.148;18.954;2024-01-15T07:39:33;5.75;;;5.00;;
79644;SDS011;69117;47.148;18.954;2024-01-15T07:42:36;9.00;;;5.32;;
79644;SDS011;69117;47.148;18.954;2024-01-15T07:45:37;11.50;;;5.18;;
79644;SDS011;69117;47.148;18.954;2024-01-15T07:48:40;11.48;;;5.82;;
79644;SDS011;69117;47.148;18.954;2024-01-15T07:51:42;10.82;;;6.13;;
79644;SDS011;69117;47.148;18.954;2024-01-15T07:54:47;9.25;;;5.53;;
79644;SDS011;69117;47.148;18.954;2024-01-15T08:01:03;15.25;;;4.38;;
79644;SDS011;69117;47.148;18.954;2024-01-15T08:04:05;6.40;;;5.38;;
79644;SDS011;69117;47.148;18.954;2024-01-15T08:07:06;9.63;;;5.88;;
79644;SDS011;69117;47.148;18.954;2024-01-15T08:10:09;11.05;;;5.05;;
79644;SDS011;69117;47.148;18.954;2024-01-15T08:13:11;10.68;;;6.35;;
79644;SDS011;69117;47.148;18.954;2024-01-15T08:16:12;8.82;;;5.28;;
79644;SDS011;69117;47.148;18.954;2024-01-15T08:19:14;10.98;;;6.75;;
79644;SDS011;69117;47.148;18.954;2024-01-15T08:22:16;13.73;;;8.23;;
79644;SDS011;69117;47.148;18.954;2024-01-15T08:25:18;12.23;;;8.68;;
79644;SDS011;69117;47.148;18.954;2024-01-15T08:28:19;20.35;;;7.70;;
79644;SDS011;69117;47.148;18.954;2024-01-15T08:31:21;8.20;;;7.47;;
79644;SDS011;69117;47.148;18.954;2024-01-15T08:34:24;11.82;;;7.78;;
79644;SDS011;69117;47.148;18.954;2024-01-15T08:37:29;18.48;;;9.88;;
79644;SDS011;69117;47.148;18.954;2024-01-15T08:40:30;12.52;;;7.53;;
79644;SDS011;69117;47.148;18.954;2024-01-15T08:43:32;13.75;;;8.10;;
79644;SDS011;69117;47.148;18.954;2024-01-15T08:46:34;18.50;;;7.20;;
79644;SDS011;69117;47.148;18.954;2024-01-15T08:49:35;20.92;;;8.02;;
79644;SDS011;69117;47.148;18.954;2024-01-15T08:52:38;16.25;;;9.15;;
79644;SDS011;69117;47.148;18.954;2024-01-15T08:58:43;7.55;;;6.85;;
79644;SDS011;69117;47.148;18.954;2024-01-15T09:01:47;11.07;;;5.03;;
79644;SDS011;69117;47.148;18.954;2024-01-15T09:04:49;9.40;;;6.68;;
79644;SDS011;69117;47.148;18.954;2024-01-15T09:10:53;5.78;;;3.95;;
79644;SDS011;69117;47.148;18.954;2024-01-15T09:13:55;4.57;;;3.50;;
79644;SDS011;69117;47.148;18.954;2024-01-15T09:16:56;15.00;;;7.18;;
79644;SDS011;69117;47.148;18.954;2024-01-15T09:19:58;7.32;;;4.20;;
79644;SDS011;69117;47.148;18.954;2024-01-15T09:23:00;12.68;;;6.65;;
79644;SDS011;69117;47.148;18.954;2024-01-15T09:26:03;12.65;;;5.63;;
79644;SDS011;69117;47.148;18.954;2024-01-15T09:32:06;4.85;;;3.22;;
79644;SDS011;69117;47.148;18.954;2024-01-15T09:35:08;6.88;;;5.47;;
79644;SDS011;69117;47.148;18.954;2024-01-15T09:41:12;13.55;;;6.00;;
79644;SDS011;69117;47.148;18.954;2024-01-15T09:44:13;10.73;;;5.72;;
79644;SDS011;69117;47.148;18.954;2024-01-15T09:47:15;13.25;;;6.68;;
79644;SDS011;69117;47.148;18.954;2024-01-15T09:50:19;8.82;;;5.32;;
79644;SDS011;69117;47.148;18.954;2024-01-15T09:53:21;7.68;;;4.18;;
79644;SDS011;69117;47.148;18.954;2024-01-15T09:56:24;10.50;;;5.28;;
79644;SDS011;69117;47.148;18.954;2024-01-15T09:59:26;7.80;;;3.60;;
79644;SDS011;69117;47.148;18.954;2024-01-15T10:02:29;9.57;;;5.13;;
79644;SDS011;69117;47.148;18.954;2024-01-15T10:05:32;10.77;;;3.50;;
79644;SDS011;69117;47.148;18.954;2024-01-15T10:08:34;6.65;;;3.55;;
79644;SDS011;69117;47.148;18.954;2024-01-15T10:11:38;8.25;;;3.50;;
79644;SDS011;69117;47.148;18.954;2024-01-15T10:14:40;8.95;;;4.68;;
79644;SDS011;69117;47.148;18.954;2024-01-15T10:17:43;8.60;;;4.05;;
79644;SDS011;69117;47.148;18.954;2024-01-15T10:20:45;6.75;;;3.05;;
79644;SDS011;69117;47.148;18.954;2024-01-15T10:23:48;3.03;;;2.28;;
79644;SDS011;69117;47.148;18.954;2024-01-15T10:26:50;5.10;;;3.20;;
79644;SDS011;69117;47.148;18.954;2024-01-15T10:32:59;3.03;;;2.30;;
79644;SDS011;69117;47.148;18.954;2024-01-15T10:36:02;6.13;;;3.08;;
79644;SDS011;69117;47.148;18.954;2024-01-15T10:39:10;5.25;;;2.53;;
79644;SDS011;69117;47.148;18.954;2024-01-15T10:42:15;3.85;;;3.15;;
79644;SDS011;69117;47.148;18.954;2024-01-15T10:45:16;2.60;;;0.90;;
79644;SDS011;69117;47.148;18.954;2024-01-15T10:48:19;3.35;;;2.08;;
79644;SDS011;69117;47.148;18.954;2024-01-15T10:51:21;4.65;;;2.47;;
79644;SDS011;69117;47.148;18.954;2024-01-15T10:54:23;2.70;;;2.00;;
79644;SDS011;69117;47.148;18.954;2024-01-15T10:57:25;4.25;;;1.77;;
79644;SDS011;69117;47.148;18.954;2024-01-15T11:00:29;5.70;;;3.33;;
79644;SDS011;69117;47.148;18.954;2024-01-15T11:03:31;2.40;;;1.00;;
79644;SDS011;69117;47.148;18.954;2024-01-15T11:06:44;3.97;;;1.60;;
79644;SDS011;69117;47.148;18.954;2024-01-15T11:09:48;3.50;;;1.55;;
79644;SDS011;69117;47.148;18.954;2024-01-15T11:12:50;4.00;;;2.75;;
79644;SDS011;69117;47.148;18.954;2024-01-15T11:15:56;2.40;;;1.42;;
79644;SDS011;69117;47.148;18.954;2024-01-15T11:22:00;2.88;;;1.27;;
79644;SDS011;69117;47.148;18.954;2024-01-15T11:25:03;4.20;;;1.75;;
79644;SDS011;69117;47.148;18.954;2024-01-15T11:28:17;4.15;;;2.17;;
79644;SDS011;69117;47.148;18.954;2024-01-15T11:34:54;2.55;;;1.70;;
79644;SDS011;69117;47.148;18.954;2024-01-15T11:37:59;3.50;;;1.42;;
79644;SDS011;69117;47.148;18.954;2024-01-15T11:41:01;3.00;;;1.70;;
79644;SDS011;69117;47.148;18.954;2024-01-15T11:44:16;1.88;;;0.80;;
79644;SDS011;69117;47.148;18.954;2024-01-15T11:50:54;3.65;;;1.08;;
79644;SDS011;69117;47.148;18.954;2024-01-15T11:53:57;2.60;;;0.90;;
79644;SDS011;69117;47.148;18.954;2024-01-15T11:57:07;2.80;;;0.68;;
79644;SDS011;69117;47.148;18.954;2024-01-15T12:00:12;3.08;;;1.05;;
79644;SDS011;69117;47.148;18.954;2024-01-15T12:03:14;2.95;;;0.63;;
79644;SDS011;69117;47.148;18.954;2024-01-15T12:06:16;2.45;;;0.88;;
79644;SDS011;69117;47.148;18.954;2024-01-15T12:09:21;2.22;;;1.77;;
79644;SDS011;69117;47.148;18.954;2024-01-15T12:12:33;2.85;;;1.00;;
79644;SDS011;69117;47.148;18.954;2024-01-15T12:15:46;2.72;;;0.93;;
79644;SDS011;69117;47.148;18.954;2024-01-15T12:18:50;5.43;;;1.42;;
79644;SDS011;69117;47.148;18.954;2024-01-15T12:21:52;1.63;;;1.10;;
79644;SDS011;69117;47.148;18.954;2024-01-15T12:24:54;1.50;;;0.57;;
79644;SDS011;69117;47.148;18.954;2024-01-15T12:27:56;5.55;;;1.60;;
79644;SDS011;69117;47.148;18.954;2024-01-15T12:30:58;3.78;;;1.65;;
79644;SDS011;69117;47.148;18.954;2024-01-15T12:34:02;2.15;;;0.90;;
79644;SDS011;69117;47.148;18.954;2024-01-15T12:37:03;2.65;;;1.15;;
79644;SDS011;69117;47.148;18.954;2024-01-15T12:40:06;3.70;;;1.42;;
79644;SDS011;69117;47.148;18.954;2024-01-15T12:43:09;5.15;;;2.17;;
79644;SDS011;69117;47.148;18.954;2024-01-15T12:46:11;1.48;;;1.10;;
79644;SDS011;69117;47.148;18.954;2024-01-15T12:49:15;2.22;;;1.20;;
79644;SDS011;69117;47.148;18.954;2024-01-15T12:52:18;0.80;;;0.75;;
79644;SDS011;69117;47.148;18.954;2024-01-15T12:55:20;2.60;;;1.15;;
79644;SDS011;69117;47.148;18.954;2024-01-15T12:58:23;2.08;;;1.08;;
79644;SDS011;69117;47.148;18.954;2024-01-15T13:01:25;4.20;;;0.90;;
79644;SDS011;69117;47.148;18.954;2024-01-15T13:04:27;2.40;;;1.00;;
79644;SDS011;69117;47.148;18.954;2024-01-15T13:07:28;2.58;;;1.52;;
79644;SDS011;69117;47.148;18.954;2024-01-15T13:10:31;2.42;;;1.30;;
79644;SDS011;69117;47.148;18.954;2024-01-15T13:13:33;1.65;;;0.93;;
79644;SDS011;69117;47.148;18.954;2024-01-15T13:16:35;2.42;;;0.77;;
79644;SDS011;69117;47.148;18.954;2024-01-15T13:19:37;3.13;;;0.75;;
79644;SDS011;69117;47.148;18.954;2024-01-15T13:22:39;4.53;;;1.30;;
79644;SDS011;69117;47.148;18.954;2024-01-15T13:25:42;1.92;;;1.45;;
79644;SDS011;69117;47.148;18.954;2024-01-15T13:28:44;1.15;;;0.85;;
79644;SDS011;69117;47.148;18.954;2024-01-15T13:31:45;2.35;;;1.48;;
79644;SDS011;69117;47.148;18.954;2024-01-15T13:34:48;2.60;;;0.88;;
79644;SDS011;69117;47.148;18.954;2024-01-15T13:37:50;2.50;;;0.93;;
79644;SDS011;69117;47.148;18.954;2024-01-15T13:40:51;2.80;;;1.65;;
79644;SDS011;69117;47.148;18.954;2024-01-15T13:43:54;1.90;;;1.08;;
79644;SDS011;69117;47.148;18.954;2024-01-15T13:46:56;3.08;;;1.45;;
79644;SDS011;69117;47.148;18.954;2024-01-15T13:49:58;2.00;;;0.65;;
79644;SDS011;69117;47.148;18.954;2024-01-15T13:53:00;1.73;;;0.98;;
79644;SDS011;69117;47.148;18.954;2024-01-15T13:56:02;4.15;;;1.50;;
79644;SDS011;69117;47.148;18.954;2024-01-15T13:59:04;2.17;;;0.88;;
79644;SDS011;69117;47.148;18.954;2024-01-15T14:02:12;1.77;;;1.20;;
79644;SDS011;69117;47.148;18.954;2024-01-15T14:05:20;2.88;;;0.85;;
79644;SDS011;69117;47.148;18.954;2024-01-15T14:08:22;2.28;;;0.95;;
79644;SDS011;69117;47.148;18.954;2024-01-15T14:11:24;1.95;;;1.00;;
79644;SDS011;69117;47.148;18.954;2024-01-15T14:14:25;3.03;;;1.40;;
79644;SDS011;69117;47.148;18.954;2024-01-15T14:17:28;1.55;;;0.85;;
79644;SDS011;69117;47.148;18.954;2024-01-15T14:20:29;2.00;;;1.70;;
79644;SDS011;69117;47.148;18.954;2024-01-15T14:23:32;6.13;;;3.08;;
79644;SDS011;69117;47.148;18.954;2024-01-15T14:26:34;5.38;;;1.85;;
79644;SDS011;69117;47.148;18.954;2024-01-15T14:29:36;3.55;;;2.10;;
79644;SDS011;69117;47.148;18.954;2024-01-15T14:32:38;2.75;;;1.35;;
79644;SDS011;69117;47.148;18.954;2024-01-15T14:35:40;3.42;;;1.10;;
79644;SDS011;69117;47.148;18.954;2024-01-15T14:38:42;1.02;;;0.38;;
79644;SDS011;69117;47.148;18.954;2024-01-15T14:44:45;1.98;;;1.40;;
79644;SDS011;69117;47.148;18.954;2024-01-15T14:47:46;5.78;;;0.98;;
79644;SDS011;69117;47.148;18.954;2024-01-15T14:50:48;2.67;;;1.45;;
79644;SDS011;69117;47.148;18.954;2024-01-15T14:53:51;5.55;;;1.60;;
79644;SDS011;69117;47.148;18.954;2024-01-15T14:56:53;9.77;;;2.35;;
79644;SDS011;69117;47.148;18.954;2024-01-15T14:59:55;8.00;;;2.72;;
79644;SDS011;69117;47.148;18.954;2024-01-15T15:02:57;5.55;;;2.05;;
79644;SDS011;69117;47.148;18.954;2024-01-15T15:05:59;4.22;;;1.50;;
79644;SDS011;69117;47.148;18.954;2024-01-15T15:09:01;6.78;;;2.20;;
79644;SDS011;69117;47.148;18.954;2024-01-15T15:12:04;8.02;;;2.75;;
79644;SDS011;69117;47.148;18.954;2024-01-15T15:15:06;3.47;;;1.67;;
79644;SDS011;69117;47.148;18.954;2024-01-15T15:18:12;5.25;;;1.40;;
79644;SDS011;69117;47.148;18.954;2024-01-15T15:21:14;3.10;;;0.98;;
79644;SDS011;69117;47.148;18.954;2024-01-15T15:24:16;3.00;;;1.50;;
79644;SDS011;69117;47.148;18.954;2024-01-15T15:27:18;3.80;;;1.33;;
79644;SDS011;69117;47.148;18.954;2024-01-15T15:30:19;1.25;;;0.65;;
79644;SDS011;69117;47.148;18.954;2024-01-15T15:33:21;6.75;;;2.40;;
79644;SDS011;69117;47.148;18.954;2024-01-15T15:36:23;3.42;;;2.08;;
79644;SDS011;69117;47.148;18.954;2024-01-15T15:39:25;8.52;;;2.63;;
79644;SDS011;69117;47.148;18.954;2024-01-15T15:42:27;4.78;;;3.33;;
79644;SDS011;69117;47.148;18.954;2024-01-15T15:45:29;3.88;;;2.17;;
79644;SDS011;69117;47.148;18.954;2024-01-15T15:48:31;10.93;;;3.30;;
79644;SDS011;69117;47.148;18.954;2024-01-15T15:51:33;7.15;;;2.95;;
79644;SDS011;69117;47.148;18.954;2024-01-15T15:54:37;3.08;;;1.45;;
79644;SDS011;69117;47.148;18.954;2024-01-15T15:57:38;7.43;;;3.10;;
79644;SDS011;69117;47.148;18.954;2024-01-15T16:00:40;4.50;;;2.88;;
79644;SDS011;69117;47.148;18.954;2024-01-15T16:03:42;7.57;;;2.75;;
79644;SDS011;69117;47.148;18.954;2024-01-15T16:06:44;8.65;;;4.18;;
79644;SDS011;69117;47.148;18.954;2024-01-15T16:09:48;4.97;;;3.25;;
79644;SDS011;69117;47.148;18.954;2024-01-15T16:15:53;10.68;;;4.10;;
79644;SDS011;69117;47.148;18.954;2024-01-15T16:19:14;12.88;;;4.75;;
79644;SDS011;69117;47.148;18.954;2024-01-15T16:22:36;11.65;;;4.28;;
79644;SDS011;69117;47.148;18.954;2024-01-15T16:25:58;13.50;;;5.05;;
79644;SDS011;69117;47.148;18.954;2024-01-15T16:29:00;5.88;;;3.70;;
79644;SDS011;69117;47.148;18.954;2024-01-15T16:32:05;10.25;;;3.40;;
79644;SDS011;69117;47.148;18.954;2024-01-15T16:35:06;13.75;;;5.00;;
79644;SDS011;69117;47.148;18.954;2024-01-15T16:38:08;8.00;;;4.13;;
79644;SDS011;69117;47.148;18.954;2024-01-15T16:41:10;11.88;;;5.28;;
79644;SDS011;69117;47.148;18.954;2024-01-15T16:47:14;10.75;;;3.88;;
79644;SDS011;69117;47.148;18.954;2024-01-15T16:50:16;10.60;;;3.83;;
79644;SDS011;69117;47.148;18.954;2024-01-15T16:53:18;15.00;;;6.13;;
79644;SDS011;69117;47.148;18.954;2024-01-15T16:59:21;6.90;;;2.47;;
79644;SDS011;69117;47.148;18.954;2024-01-15T17:02:23;7.55;;;3.47;;
79644;SDS011;69117;47.148;18.954;2024-01-15T17:05:25;7.88;;;4.97;;
79644;SDS011;69117;47.148;18.954;2024-01-15T17:08:27;4.32;;;2.88;;
79644;SDS011;69117;47.148;18.954;2024-01-15T17:11:29;5.18;;;2.88;;
79644;SDS011;69117;47.148;18.954;2024-01-15T17:14:31;8.82;;;4.10;;
79644;SDS011;69117;47.148;18.954;2024-01-15T17:17:33;13.05;;;4.47;;
79644;SDS011;69117;47.148;18.954;2024-01-15T17:20:35;5.63;;;2.20;;
79644;SDS011;69117;47.148;18.954;2024-01-15T17:23:37;9.40;;;4.00;;
79644;SDS011;69117;47.148;18.954;2024-01-15T17:26:39;6.80;;;2.85;;
79644;SDS011;69117;47.148;18.954;2024-01-15T17:29:41;9.20;;;5.63;;
79644;SDS011;69117;47.148;18.954;2024-01-15T17:32:43;8.68;;;3.97;;
79644;SDS011;69117;47.148;18.954;2024-01-15T17:35:51;10.98;;;4.53;;
79644;SDS011;69117;47.148;18.954;2024-01-15T17:38:54;13.25;;;5.15;;
79644;SDS011;69117;47.148;18.954;2024-01-15T17:44:57;4.45;;;1.98;;
79644;SDS011;69117;47.148;18.954;2024-01-15T17:47:59;4.65;;;2.83;;
79644;SDS011;69117;47.148;18.954;2024-01-15T17:51:01;12.13;;;4.53;;
79644;SDS011;69117;47.148;18.954;2024-01-15T17:54:04;6.53;;;2.47;;
79644;SDS011;69117;47.148;18.954;2024-01-15T17:57:10;5.80;;;3.35;;
79644;SDS011;69117;47.148;18.954;2024-01-15T18:03:15;2.50;;;1.80;;
79644;SDS011;69117;47.148;18.954;2024-01-15T18:06:18;9.63;;;4.13;;
79644;SDS011;69117;47.148;18.954;2024-01-15T18:09:20;4.95;;;2.13;;
79644;SDS011;69117;47.148;18.954;2024-01-15T18:15:25;3.35;;;2.58;;
79644;SDS011;69117;47.148;18.954;2024-01-15T18:18:27;9.77;;;4.57;;
79644;SDS011;69117;47.148;18.954;2024-01-15T18:21:28;10.90;;;2.97;;
79644;SDS011;69117;47.148;18.954;2024-01-15T18:24:30;5.28;;;3.08;;
79644;SDS011;69117;47.148;18.954;2024-01-15T18:27:32;18.17;;;9.50;;
79644;SDS011;69117;47.148;18.954;2024-01-15T18:30:33;9.75;;;5.95;;
79644;SDS011;69117;47.148;18.954;2024-01-15T18:33:36;8.43;;;4.13;;
79644;SDS011;69117;47.148;18.954;2024-01-15T18:36:37;7.45;;;3.45;;
79644;SDS011;69117;47.148;18.954;2024-01-15T18:42:44;8.65;;;4.22;;
79644;SDS011;69117;47.148;18.954;2024-01-15T18:45:45;11.63;;;4.15;;
79644;SDS011;69117;47.148;18.954;2024-01-15T18:48:47;10.45;;;3.83;;
79644;SDS011;69117;47.148;18.954;2024-01-15T18:51:49;8.27;;;4.55;;
79644;SDS011;69117;47.148;18.954;2024-01-15T18:54:54;10.98;;;4.30;;
79644;SDS011;69117;47.148;18.954;2024-01-15T18:57:57;5.55;;;3.28;;
79644;SDS011;69117;47.148;18.954;2024-01-15T19:01:01;8.73;;;5.03;;
79644;SDS011;69117;47.148;18.954;2024-01-15T19:04:03;9.95;;;4.85;;
79644;SDS011;69117;47.148;18.954;2024-01-15T19:07:05;7.28;;;3.83;;
79644;SDS011;69117;47.148;18.954;2024-01-15T19:10:09;11.35;;;3.40;;
79644;SDS011;69117;47.148;18.954;2024-01-15T19:16:13;2.95;;;1.90;;
79644;SDS011;69117;47.148;18.954;2024-01-15T19:19:16;4.10;;;2.80;;
79644;SDS011;69117;47.148;18.954;2024-01-15T19:25:20;3.40;;;2.03;;
79644;SDS011;69117;47.148;18.954;2024-01-15T19:31:23;1.88;;;0.98;;
79644;SDS011;69117;47.148;18.954;2024-01-15T19:37:27;2.83;;;1.58;;
79644;SDS011;69117;47.148;18.954;2024-01-15T19:40:28;2.45;;;1.20;;
79644;SDS011;69117;47.148;18.954;2024-01-15T19:43:31;3.72;;;1.45;;
79644;SDS011;69117;47.148;18.954;2024-01-15T19:49:35;3.08;;;1.02;;
79644;SDS011;69117;47.148;18.954;2024-01-15T19:52:37;1.63;;;0.77;;
79644;SDS011;69117;47.148;18.954;2024-01-15T19:58:40;1.90;;;1.10;;